Time;durP1;ratioP1;P1;durP2;ratioP2;P2;SDS_P1;SDS_P2;PMS_P1;PMS_P2;Temp;Humidity;BMP_temperature;BMP_pressure;BME280_temperature;BME280_humidity;BME280_pressure;Samples;Min_cycle;Max_cycle;Signal;HPM_P1;HPM_P2
2022/10/01 00:01:01;;;;;;;7.97;5.75;;;;;;;10.51;92.74;100200.16;4912073;29;20103;-74
2022/10/01 00:03:28;;;;;;;10.30;5.72;;;;;;;10.50;92.78;100216.63;4917150;29;20054;-74
2022/10/01 00:06:00;;;;;;;7.05;5.53;;;;;;;10.51;92.83;100202.03;4932054;29;20093;-73
2022/10/01 00:08:27;;;;;;;12.68;5.78;;;;;;;10.52;92.16;100204.63;4931961;29;20067;-73
2022/10/01 00:10:52;;;;;;;8.43;5.97;;;;;;;10.51;92.65;100194.72;4930583;29;20040;-73
2022/10/01 00:13:19;;;;;;;7.13;5.70;;;;;;;10.52;92.56;100182.84;4931923;29;20036;-73
2022/10/01 00:15:44;;;;;;;8.82;5.32;;;;;;;10.53;92.80;100162.81;4930959;29;20024;-74
2022/10/01 00:18:10;;;;;;;10.07;5.45;;;;;;;10.52;93.25;100158.38;4931317;29;20194;-73
2022/10/01 00:20:40;;;;;;;8.65;5.85;;;;;;;10.49;93.31;100164.06;4935355;29;20448;-73
2022/10/01 00:23:06;;;;;;;8.43;6.15;;;;;;;10.48;93.13;100152.31;4913288;29;20040;-73
2022/10/01 00:25:31;;;;;;;8.65;6.05;;;;;;;10.47;93.22;100152.47;4917012;29;20456;-74
2022/10/01 00:27:56;;;;;;;9.18;5.85;;;;;;;10.43;93.46;100146.41;4926617;29;20348;-73
2022/10/01 00:30:22;;;;;;;7.88;5.50;;;;;;;10.45;93.86;100158.03;4911991;29;20492;-74
2022/10/01 00:32:47;;;;;;;6.05;5.38;;;;;;;10.46;93.30;100153.47;4925486;29;20435;-74
2022/10/01 00:35:13;;;;;;;8.05;5.68;;;;;;;10.48;93.07;100140.59;4913427;29;20392;-74
2022/10/01 00:37:41;;;;;;;10.10;5.68;;;;;;;10.50;93.30;100126.88;4913199;29;20028;-74
2022/10/01 00:40:07;;;;;;;5.60;4.90;;;;;;;10.51;93.18;100142.19;4927388;29;20040;-74
2022/10/01 00:42:33;;;;;;;7.72;5.32;;;;;;;10.51;93.23;100153.94;4911372;29;20515;-74
2022/10/01 00:45:01;;;;;;;7.95;5.93;;;;;;;10.53;92.79;100154.66;4911752;29;20115;-74
2022/10/01 00:47:35;;;;;;;10.07;5.53;;;;;;;10.54;93.01;100156.41;4911533;29;20191;-74
2022/10/01 00:50:27;;;;;;;8.23;5.60;;;;;;;10.55;93.29;100141.81;4914265;29;20051;-73
2022/10/01 00:52:59;;;;;;;8.95;5.65;;;;;;;10.57;92.67;100138.94;4909644;29;20063;-74
2022/10/01 00:55:30;;;;;;;9.40;5.32;;;;;;;10.58;92.98;100146.13;4913115;29;20470;-75
2022/10/01 00:57:55;;;;;;;7.40;5.80;;;;;;;10.58;92.86;100143.41;4897440;29;20043;-74
2022/10/01 01:00:21;;;;;;;9.70;5.60;;;;;;;10.58;93.37;100140.69;4912754;29;20024;-74
2022/10/01 01:02:46;;;;;;;6.15;5.35;;;;;;;10.58;93.44;100144.25;4913772;29;20044;-72
2022/10/01 01:05:12;;;;;;;6.28;5.50;;;;;;;10.56;94.05;100150.84;4930542;29;20434;-74
2022/10/01 01:07:44;;;;;;;8.10;6.07;;;;;;;10.57;93.89;100139.81;4931742;29;20044;-74
2022/10/01 01:10:12;;;;;;;7.03;5.38;;;;;;;10.54;94.52;100150.09;4922147;29;20044;-74
2022/10/01 01:13:05;;;;;;;8.48;5.05;;;;;;;10.54;94.43;100125.59;4913155;29;20486;-74
2022/10/01 01:15:39;;;;;;;8.50;5.30;;;;;;;10.51;95.15;100137.63;4925337;29;20044;-73
2022/10/01 01:18:34;;;;;;;6.18;4.90;;;;;;;10.52;95.06;100105.84;4929516;29;20052;-74
2022/10/01 01:21:12;;;;;;;6.65;5.20;;;;;;;10.44;95.66;100082.91;4917335;29;20063;-75
2022/10/01 01:23:46;;;;;;;9.32;5.50;;;;;;;10.39;96.36;100049.75;4931626;29;20082;-74
2022/10/01 01:26:30;;;;;;;7.97;5.13;;;;;;;10.34;97.43;100032.13;4934539;29;20035;-75
2022/10/01 01:29:03;;;;;;;6.60;5.38;;;;;;;10.34;96.77;100018.53;4935332;29;20122;-74
2022/10/01 01:31:38;;;;;;;7.13;4.88;;;;;;;10.34;97.04;99986.75;4934163;29;20590;-74
2022/10/01 01:34:11;;;;;;;6.82;4.22;;;;;;;10.35;96.69;99996.66;4934221;29;20313;-72
2022/10/01 01:36:40;;;;;;;6.97;4.35;;;;;;;10.34;97.39;100007.66;4928179;29;20043;-74
2022/10/01 01:39:12;;;;;;;8.30;4.57;;;;;;;10.32;97.25;100021.38;4914736;29;20036;-75
2022/10/01 01:41:47;;;;;;;4.75;3.78;;;;;;;10.33;96.98;100027.69;4922944;29;20428;-74
2022/10/01 01:44:16;;;;;;;4.63;3.50;;;;;;;10.34;97.28;100057.44;4935502;29;20047;-75
2022/10/01 01:46:45;;;;;;;5.50;3.78;;;;;;;10.35;97.57;100064.63;4933948;29;20062;-74
2022/10/01 01:49:14;;;;;;;6.82;4.05;;;;;;;10.36;97.72;100046.47;4934302;29;20039;-74
2022/10/01 01:51:47;;;;;;;5.65;4.30;;;;;;;10.36;97.60;100044.59;4916779;29;20043;-74
2022/10/01 01:54:12;;;;;;;5.10;3.97;;;;;;;10.38;97.53;100033.59;4914978;29;20044;-75
2022/10/01 01:56:38;;;;;;;3.80;3.30;;;;;;;10.38;97.55;100020.00;4927838;29;20071;-75
2022/10/01 01:59:03;;;;;;;5.07;3.90;;;;;;;10.38;97.79;100020.00;4933474;29;20106;-75
2022/10/01 02:01:58;;;;;;;5.28;3.63;;;;;;;10.38;97.96;100025.44;4921331;29;20146;-74
2022/10/01 02:04:30;;;;;;;5.80;3.53;;;;;;;10.34;97.73;100016.66;4908975;29;20048;-74
2022/10/01 02:07:26;;;;;;;6.93;3.97;;;;;;;10.38;98.23;100029.00;4933329;29;20487;-75
2022/10/01 02:10:17;;;;;;;5.80;3.90;;;;;;;10.37;98.24;100031.88;4934814;29;20085;-74
2022/10/01 02:12:52;;;;;;;5.85;3.53;;;;;;;10.35;98.60;100021.13;4934576;29;20552;-75
2022/10/01 02:15:27;;;;;;;4.78;3.45;;;;;;;10.34;99.02;100023.97;4933366;29;20043;-74
2022/10/01 02:18:01;;;;;;;3.55;3.08;;;;;;;10.34;98.73;100013.94;4934426;29;20066;-74
2022/10/01 02:20:44;;;;;;;4.15;3.38;;;;;;;10.35;98.72;100014.81;4933043;29;20043;-73
2022/10/01 02:23:19;;;;;;;4.15;2.85;;;;;;;10.36;99.04;100003.81;4934490;29;20044;-74
2022/10/01 02:25:51;;;;;;;5.65;2.85;;;;;;;10.35;99.18;100002.09;4934534;29;20047;-73
2022/10/01 02:28:21;;;;;;;6.30;3.00;;;;;;;10.36;99.10;99997.53;4915430;29;20181;-73
2022/10/01 02:30:50;;;;;;;3.10;2.50;;;;;;;10.36;99.30;100000.25;4914540;29;20036;-74
2022/10/01 02:33:20;;;;;;;2.90;2.60;;;;;;;10.36;99.42;99989.38;4915543;29;20040;-75
2022/10/01 02:35:49;;;;;;;2.88;2.58;;;;;;;10.37;99.58;99980.22;4924671;29;20036;-71
2022/10/01 02:38:17;;;;;;;2.80;2.53;;;;;;;10.38;99.05;99979.22;4934558;29;20463;-74
2022/10/01 02:40:45;;;;;;;3.33;2.55;;;;;;;10.38;99.35;99985.50;4934484;29;20090;-74
2022/10/01 02:43:16;;;;;;;3.53;2.42;;;;;;;10.36;99.54;99982.06;4930137;29;20040;-75
2022/10/01 02:45:46;;;;;;;3.78;2.58;;;;;;;10.38;99.95;99981.94;4915526;29;20050;-73
2022/10/01 02:48:15;;;;;;;3.47;2.50;;;;;;;10.38;100.00;99973.78;4915211;29;20127;-74
2022/10/01 02:50:56;;;;;;;3.00;2.30;;;;;;;10.38;100.00;99980.06;4928547;29;20039;-75
2022/10/01 02:53:37;;;;;;;2.20;2.00;;;;;;;10.41;99.60;99981.69;4913457;29;20459;-75
2022/10/01 02:56:04;;;;;;;3.42;2.50;;;;;;;10.45;99.68;99966.81;4920236;29;20051;-74
2022/10/01 02:58:30;;;;;;;2.33;2.13;;;;;;;10.44;99.57;99981.38;4929236;29;20055;-75
2022/10/01 03:00:55;;;;;;;2.95;2.55;;;;;;;10.45;100.00;99988.59;4929311;29;20044;-75
2022/10/01 03:03:21;;;;;;;2.35;2.10;;;;;;;10.47;99.87;99978.41;4930233;29;20133;-75
2022/10/01 03:05:46;;;;;;;4.28;2.05;;;;;;;10.47;99.97;99959.38;4933137;29;20039;-71
2022/10/01 03:08:11;;;;;;;3.10;2.53;;;;;;;10.48;100.00;99936.63;4933467;29;20054;-73
2022/10/01 03:10:37;;;;;;;3.05;2.00;;;;;;;10.43;100.00;99938.88;4932174;29;20040;-75
2022/10/01 03:13:06;;;;;;;3.00;2.22;;;;;;;10.48;100.00;99959.25;4931792;29;20490;-75
2022/10/01 03:15:31;;;;;;;2.85;2.28;;;;;;;10.51;100.00;99954.56;4929365;29;20044;-74
2022/10/01 03:17:56;;;;;;;2.08;1.88;;;;;;;10.53;99.90;99939.81;4923369;29;20039;-74
2022/10/01 03:20:22;;;;;;;2.25;1.90;;;;;;;10.55;100.00;99954.16;4922568;29;20047;-74
2022/10/01 03:22:48;;;;;;;2.70;2.00;;;;;;;10.55;99.56;99973.19;4932907;29;20051;-75
2022/10/01 03:25:14;;;;;;;2.05;1.77;;;;;;;10.57;99.80;99963.03;4931731;29;20069;-75
2022/10/01 03:27:40;;;;;;;2.30;1.80;;;;;;;10.59;100.00;99968.34;4931315;29;20062;-75
2022/10/01 03:30:05;;;;;;;1.90;1.60;;;;;;;10.61;99.60;99966.34;4931848;29;20039;-74
2022/10/01 03:32:31;;;;;;;2.95;1.85;;;;;;;10.62;99.72;99955.31;4931260;29;20036;-74
2022/10/01 03:34:57;;;;;;;1.83;1.73;;;;;;;10.65;99.68;99965.94;4923468;29;20452;-75
2022/10/01 03:37:23;;;;;;;1.60;1.50;;;;;;;10.67;99.78;99949.50;4932951;29;20074;-74
2022/10/01 03:39:48;;;;;;;2.03;1.60;;;;;;;10.66;99.82;99962.22;4931575;29;20035;-74
2022/10/01 03:42:15;;;;;;;1.60;1.50;;;;;;;10.67;100.00;99958.50;4920806;29;20036;-74
2022/10/01 03:44:41;;;;;;;2.88;1.52;;;;;;;10.69;99.50;99959.25;4914212;29;20036;-75
2022/10/01 03:47:06;;;;;;;1.65;1.45;;;;;;;10.69;99.56;99953.81;4920485;29;20031;-74
2022/10/01 03:49:33;;;;;;;1.67;1.40;;;;;;;10.72;99.75;99949.94;4931233;29;20024;-74
2022/10/01 03:51:58;;;;;;;1.73;1.63;;;;;;;10.75;99.71;99946.09;4931477;29;20487;-74
2022/10/01 03:54:24;;;;;;;1.60;1.50;;;;;;;10.78;99.96;99956.72;4932693;29;20039;-75
2022/10/01 03:56:49;;;;;;;1.50;1.40;;;;;;;10.82;99.51;99972.66;4931555;29;20066;-74
2022/10/01 03:59:15;;;;;;;2.08;1.05;;;;;;;10.85;99.14;99963.34;4933061;29;20084;-74
2022/10/01 04:01:40;;;;;;;1.30;1.20;;;;;;;10.84;99.46;99958.91;4932638;29;20584;-75
2022/10/01 04:04:06;;;;;;;1.40;1.30;;;;;;;10.89;99.27;99978.41;4931697;29;20039;-74
2022/10/01 04:06:31;;;;;;;1.05;1.00;;;;;;;10.91;99.85;99973.69;4927531;29;20044;-74
2022/10/01 04:08:57;;;;;;;1.20;1.10;;;;;;;10.91;99.89;99971.84;4913445;29;20036;-74
2022/10/01 04:11:23;;;;;;;1.63;1.20;;;;;;;10.94;99.90;99971.56;4913990;29;20530;-74
2022/10/01 04:13:48;;;;;;;1.70;1.20;;;;;;;10.97;100.00;99981.31;4913267;29;20028;-75
2022/10/01 04:16:14;;;;;;;1.65;0.95;;;;;;;10.99;99.44;99973.88;4928401;29;20060;-74
2022/10/01 04:18:40;;;;;;;2.08;1.20;;;;;;;11.03;99.73;99972.59;4913634;29;20054;-74
2022/10/01 04:21:06;;;;;;;1.00;0.90;;;;;;;11.05;100.00;99978.78;4913717;29;20603;-74
2022/10/01 04:23:31;;;;;;;1.23;0.90;;;;;;;11.06;99.54;99980.50;4927904;29;20127;-74
2022/10/01 04:25:59;;;;;;;1.33;0.80;;;;;;;11.08;99.72;99989.38;4920072;29;20039;-74
2022/10/01 04:28:24;;;;;;;1.52;0.95;;;;;;;11.10;99.74;99990.13;4932150;29;20040;-74
2022/10/01 04:31:23;;;;;;;1.77;1.10;;;;;;;11.14;99.56;99985.25;4931745;29;20051;-74
2022/10/01 04:33:35;;;;;;;2.35;1.15;;;;;;;11.15;99.49;99982.41;4929236;29;20032;-74
2022/10/01 04:36:00;;;;;;;2.10;0.95;;;;;;;11.17;99.45;99991.31;4913749;29;20043;-74
2022/10/01 04:38:26;;;;;;;1.33;1.23;;;;;;;11.19;99.66;99991.16;4913189;29;20042;-73
2022/10/01 04:40:51;;;;;;;1.17;0.98;;;;;;;11.22;99.34;99996.34;4922080;29;20051;-73
2022/10/01 04:43:16;;;;;;;2.47;1.35;;;;;;;11.19;99.69;99989.31;4931987;29;20078;-72
2022/10/01 04:45:42;;;;;;;1.30;1.20;;;;;;;11.23;99.73;99998.06;4932356;29;20468;-75
2022/10/01 04:48:07;;;;;;;1.40;1.30;;;;;;;11.26;99.41;99991.50;4931850;29;20066;-75
2022/10/01 04:50:32;;;;;;;1.67;1.00;;;;;;;11.27;99.85;100004.09;4914491;29;20391;-74
2022/10/01 04:52:58;;;;;;;1.42;1.20;;;;;;;11.27;99.75;99996.78;4912758;29;20040;-74
2022/10/01 04:55:23;;;;;;;1.63;1.20;;;;;;;11.31;99.52;100014.59;4915465;29;20090;-74
2022/10/01 04:57:49;;;;;;;1.55;1.45;;;;;;;11.34;99.83;100013.47;4930620;29;20054;-74
2022/10/01 05:00:18;;;;;;;3.58;1.63;;;;;;;11.34;100.00;100006.16;4932165;29;20051;-74
2022/10/01 05:02:44;;;;;;;2.75;1.80;;;;;;;11.38;100.00;100020.38;4930102;29;20028;-74
2022/10/01 05:05:09;;;;;;;2.05;1.70;;;;;;;11.40;100.00;100019.22;4925914;29;20043;-74
2022/10/01 05:07:37;;;;;;;3.78;1.90;;;;;;;11.42;100.00;100019.06;4927197;29;20937;-75
2022/10/01 05:10:03;;;;;;;1.77;1.67;;;;;;;11.44;100.00;100017.94;4927261;29;20059;-75
2022/10/01 05:12:29;;;;;;;2.17;1.75;;;;;;;11.45;100.00;100018.81;4911152;29;20566;-74
2022/10/01 05:14:55;;;;;;;3.05;1.75;;;;;;;11.48;100.00;100030.28;4912828;29;20087;-74
2022/10/01 05:17:21;;;;;;;2.30;2.10;;;;;;;11.48;100.00;100035.75;4927065;29;20510;-74
2022/10/01 05:19:46;;;;;;;3.88;2.67;;;;;;;11.50;100.00;100028.28;4928788;29;20043;-71
2022/10/01 05:22:13;;;;;;;7.57;2.25;;;;;;;11.52;100.00;100030.88;4925889;29;20046;-75
2022/10/01 05:24:39;;;;;;;2.35;2.15;;;;;;;11.53;100.00;100029.88;4920422;29;20032;-75
2022/10/01 05:27:05;;;;;;;2.55;2.35;;;;;;;11.55;100.00;100038.75;4931032;29;20070;-74
2022/10/01 05:29:31;;;;;;;5.28;2.40;;;;;;;11.58;100.00;100037.63;4930324;29;20047;-75
2022/10/01 05:31:57;;;;;;;2.70;2.40;;;;;;;11.58;100.00;100043.09;4930152;29;20035;-74
2022/10/01 05:34:22;;;;;;;2.25;2.05;;;;;;;11.59;100.00;100051.13;4923012;29;20123;-74
2022/10/01 05:36:48;;;;;;;2.97;2.67;;;;;;;11.62;100.00;100052.72;4911267;29;20028;-75
2022/10/01 05:39:13;;;;;;;4.70;2.85;;;;;;;11.63;100.00;100057.16;4913396;29;20032;-75
2022/10/01 05:41:39;;;;;;;6.05;2.90;;;;;;;11.64;100.00;100057.00;4926441;29;20123;-74
2022/10/01 05:44:06;;;;;;;4.75;3.20;;;;;;;11.64;100.00;100053.44;4910994;29;20035;-74
2022/10/01 05:46:31;;;;;;;3.42;3.10;;;;;;;11.66;100.00;100060.47;4921236;29;20046;-75
2022/10/01 05:48:57;;;;;;;3.50;3.20;;;;;;;11.70;100.00;100063.75;4917017;29;20052;-74
2022/10/01 05:51:23;;;;;;;4.70;3.47;;;;;;;11.74;100.00;100070.66;4931024;29;20036;-74
2022/10/01 05:53:48;;;;;;;4.97;3.22;;;;;;;11.76;100.00;100085.03;4930755;29;20070;-72
2022/10/01 05:56:14;;;;;;;5.20;3.30;;;;;;;11.78;100.00;100084.88;4929509;29;20095;-75
2022/10/01 05:58:39;;;;;;;3.78;3.25;;;;;;;11.78;100.00;100083.03;4924717;29;20081;-74
2022/10/01 06:01:04;;;;;;;6.75;3.45;;;;;;;11.80;100.00;100086.50;4923653;29;20046;-76
2022/10/01 06:03:30;;;;;;;4.22;3.72;;;;;;;11.82;100.00;100083.63;4913271;29;20547;-74
2022/10/01 06:05:55;;;;;;;4.18;3.78;;;;;;;11.84;100.00;100081.63;4919060;29;20492;-75
2022/10/01 06:08:21;;;;;;;4.80;3.63;;;;;;;11.84;100.00;100082.50;4915795;29;20471;-75
2022/10/01 06:10:47;;;;;;;5.53;4.15;;;;;;;11.84;100.00;100087.94;4931865;29;20040;-72
2022/10/01 06:13:16;;;;;;;7.43;4.28;;;;;;;11.85;100.00;100086.09;4934468;29;20040;-75
2022/10/01 06:15:43;;;;;;;7.63;4.53;;;;;;;11.88;100.00;100083.09;4927488;29;20066;-75
2022/10/01 06:18:11;;;;;;;8.05;4.45;;;;;;;11.88;100.00;100096.72;4925983;29;20040;-75
2022/10/01 06:20:38;;;;;;;5.40;4.70;;;;;;;11.90;100.00;100101.03;4926529;29;20043;-74
2022/10/01 06:23:06;;;;;;;4.97;4.22;;;;;;;11.92;100.00;100109.06;4928035;29;20039;-75
2022/10/01 06:25:32;;;;;;;6.03;4.70;;;;;;;11.94;100.00;100109.81;4920521;29;20043;-75
2022/10/01 06:27:58;;;;;;;10.45;4.72;;;;;;;11.96;100.00;100111.38;4928604;29;20039;-75
2022/10/01 06:30:26;;;;;;;7.82;4.60;;;;;;;11.98;100.00;100111.22;4917573;29;20503;-75
2022/10/01 06:32:52;;;;;;;6.43;5.20;;;;;;;12.01;100.00;100116.41;4919951;29;20032;-75
2022/10/01 06:35:19;;;;;;;10.70;5.32;;;;;;;12.05;100.00;100111.56;4931936;29;20083;-75
2022/10/01 06:37:45;;;;;;;7.88;5.60;;;;;;;12.09;100.00;100108.41;4931892;29;20094;-75
2022/10/01 06:40:11;;;;;;;8.00;5.30;;;;;;;12.12;100.00;100112.72;4932732;29;20118;-74
2022/10/01 06:42:36;;;;;;;7.53;5.80;;;;;;;12.15;100.00;100113.31;4922802;29;20136;-75
2022/10/01 06:45:02;;;;;;;8.55;5.60;;;;;;;12.19;100.00;100120.22;4932683;29;20051;-75
2022/10/01 06:47:28;;;;;;;8.30;6.47;;;;;;;12.22;100.00;100125.41;4933936;29;20043;-75
2022/10/01 06:49:53;;;;;;;8.50;5.82;;;;;;;12.25;100.00;100122.38;4924247;29;20371;-74
2022/10/01 06:55:03;;;;;;;8.98;6.10;;;;;;;12.35;100.00;100127.84;4944429;29;20505;-74
2022/10/01 06:57:28;;;;;;;8.43;6.82;;;;;;;12.37;100.00;100125.84;4921633;29;20048;-75
2022/10/01 06:59:53;;;;;;;7.78;6.40;;;;;;;12.42;100.00;100126.28;4915269;29;20111;-74
2022/10/01 07:02:22;;;;;;;11.73;6.10;;;;;;;12.50;100.00;100128.34;4933498;29;20038;-74
2022/10/01 07:04:48;;;;;;;9.75;6.60;;;;;;;12.56;100.00;100130.47;4921696;29;20135;-74
2022/10/01 07:07:13;;;;;;;10.02;6.47;;;;;;;12.63;100.00;100136.22;4933805;29;20106;-74
2022/10/01 07:09:38;;;;;;;9.02;6.20;;;;;;;12.66;100.00;100139.53;4931815;29;20040;-75
2022/10/01 07:12:05;;;;;;;9.60;6.15;;;;;;;12.70;100.00;100142.84;4931688;29;20377;-75
2022/10/01 07:14:30;;;;;;;10.40;6.75;;;;;;;12.71;100.00;100141.84;4933491;29;20367;-73
2022/10/01 07:16:56;;;;;;;7.97;6.78;;;;;;;12.76;100.00;100142.28;4932870;29;20443;-74
2022/10/01 07:19:21;;;;;;;12.27;6.32;;;;;;;12.79;100.00;100142.00;4928213;29;20496;-74
2022/10/01 07:21:47;;;;;;;10.45;6.70;;;;;;;12.88;100.00;100151.22;4912447;29;20116;-72
2022/10/01 07:24:13;;;;;;;12.02;7.10;;;;;;;12.99;100.00;100154.63;4912463;29;20429;-74
2022/10/01 07:26:39;;;;;;;10.15;7.47;;;;;;;13.11;100.00;100151.78;4926356;29;20039;-74
2022/10/01 07:29:05;;;;;;;8.40;6.72;;;;;;;13.20;100.00;100151.78;4931964;29;20130;-75
2022/10/01 07:31:30;;;;;;;10.07;6.53;;;;;;;13.29;100.00;100166.47;4933395;29;20376;-75
2022/10/01 07:33:57;;;;;;;14.85;6.70;;;;;;;13.33;99.90;100167.88;4921203;29;20063;-75
2022/10/01 07:36:22;;;;;;;9.27;6.68;;;;;;;13.37;99.35;100171.19;4928171;29;20032;-75
2022/10/01 07:38:49;;;;;;;9.60;6.30;;;;;;;13.35;99.55;100182.25;4914451;29;20045;-74
2022/10/01 07:41:16;;;;;;;10.50;6.07;;;;;;;13.33;99.30;100184.25;4916717;29;20028;-74
2022/10/01 07:43:42;;;;;;;11.40;6.10;;;;;;;13.31;99.16;100180.81;4933272;29;20044;-75
2022/10/01 07:46:08;;;;;;;11.30;6.03;;;;;;;13.26;99.76;100194.91;4933353;29;20047;-76
2022/10/01 07:48:34;;;;;;;8.65;6.53;;;;;;;13.21;99.74;100205.38;4929904;29;20146;-75
2022/10/01 07:50:59;;;;;;;17.63;7.63;;;;;;;13.17;100.00;100211.28;4928743;29;20472;-74
2022/10/01 07:53:26;;;;;;;9.45;4.68;;;;;;;13.09;98.44;100201.06;4931334;29;20040;-74
2022/10/01 07:55:51;;;;;;;8.40;3.13;;;;;;;12.98;97.74;100198.47;4932177;29;20055;-75
2022/10/01 07:58:22;;;;;;;6.18;2.70;;;;;;;12.93;97.87;100212.56;4929157;29;20531;-74
2022/10/01 08:00:56;;;;;;;5.00;3.53;;;;;;;12.87;98.64;100215.88;4925271;29;20088;-74
2022/10/01 08:03:22;;;;;;;5.15;4.57;;;;;;;12.89;99.33;100215.72;4914681;29;20139;-77
2022/10/01 08:05:48;;;;;;;8.88;5.93;;;;;;;12.92;100.00;100218.16;4936772;29;20043;-75
2022/10/01 08:08:14;;;;;;;13.00;7.35;;;;;;;12.97;100.00;100227.66;4932781;29;20058;-76
2022/10/01 08:10:40;;;;;;;12.18;6.80;;;;;;;13.02;100.00;100216.31;4927402;29;20494;-77
2022/10/01 08:13:14;;;;;;;12.48;8.13;;;;;;;13.10;100.00;100227.34;4928813;29;20040;-77
2022/10/01 08:15:44;;;;;;;15.52;9.77;;;;;;;13.18;100.00;100227.50;4932516;29;20054;-77
2022/10/01 08:18:11;;;;;;;14.43;10.00;;;;;;;13.33;100.00;100227.13;4929592;29;20043;-77
2022/10/01 08:20:40;;;;;;;15.75;9.85;;;;;;;13.52;100.00;100246.22;4927861;29;20119;-77
2022/10/01 08:23:09;;;;;;;14.75;9.15;;;;;;;13.58;100.00;100253.00;4913229;29;20057;-76
2022/10/01 08:25:35;;;;;;;13.25;9.50;;;;;;;13.58;100.00;100253.88;4930914;29;20039;-77
2022/10/01 08:28:01;;;;;;;17.23;8.27;;;;;;;13.59;100.00;100239.19;4911480;29;20484;-75
2022/10/01 08:30:27;;;;;;;11.90;7.97;;;;;;;13.60;100.00;100254.56;4912185;29;20138;-76
2022/10/01 08:32:54;;;;;;;12.20;7.75;;;;;;;13.69;100.00;100259.16;4926861;29;20035;-77
2022/10/01 08:35:20;;;;;;;14.52;8.57;;;;;;;13.88;100.00;100261.00;4920445;29;20028;-78
2022/10/01 08:37:46;;;;;;;11.60;7.97;;;;;;;14.03;100.00;100261.41;4931489;29;20046;-74
2022/10/01 08:40:11;;;;;;;15.10;8.10;;;;;;;14.08;100.00;100258.22;4930581;29;20039;-76
2022/10/01 08:42:52;;;;;;;11.88;7.90;;;;;;;14.13;99.38;100269.59;4926984;29;20521;-77
2022/10/01 08:45:20;;;;;;;12.32;7.65;;;;;;;14.10;99.14;100270.75;4913057;29;20119;-77
2022/10/01 08:47:54;;;;;;;11.18;6.70;;;;;;;14.06;98.44;100268.47;4911874;29;20571;-77
2022/10/01 08:50:38;;;;;;;11.95;7.68;;;;;;;14.12;99.78;100266.00;4922201;29;20036;-77
2022/10/01 08:53:10;;;;;;;12.73;7.35;;;;;;;14.19;98.61;100261.66;4913012;29;20043;-78
2022/10/01 08:55:36;;;;;;;8.85;6.50;;;;;;;14.30;98.72;100264.22;4931672;29;20051;-77
2022/10/01 08:58:05;;;;;;;7.95;5.85;;;;;;;14.34;98.32;100272.13;4931324;29;20031;-77
2022/10/01 09:00:34;;;;;;;10.38;5.45;;;;;;;14.30;97.61;100274.28;4931579;29;20048;-76
2022/10/01 09:03:04;;;;;;;11.45;5.40;;;;;;;14.28;97.68;100274.44;4931742;29;20051;-77
2022/10/01 09:05:33;;;;;;;9.70;5.35;;;;;;;14.27;96.76;100271.88;4921824;29;20377;-77
2022/10/01 09:08:03;;;;;;;6.50;4.75;;;;;;;14.24;97.21;100280.38;4931228;29;20487;-77
2022/10/01 09:10:44;;;;;;;7.32;4.80;;;;;;;14.26;97.49;100278.34;4930390;29;20472;-76
2022/10/01 09:13:09;;;;;;;10.90;5.25;;;;;;;14.28;97.92;100285.41;4931131;29;20054;-75
2022/10/01 09:16:13;;;;;;;8.35;4.15;;;;;;;14.34;97.91;100296.75;4931548;29;20040;-77
2022/10/01 09:18:54;;;;;;;10.07;4.88;;;;;;;14.35;97.55;100291.13;4909315;29;20534;-77
2022/10/01 09:21:26;;;;;;;11.32;4.45;;;;;;;14.35;97.87;100299.34;4930454;29;20032;-77
2022/10/01 09:24:14;;;;;;;11.05;3.67;;;;;;;14.41;97.59;100306.06;4931643;29;20134;-77
2022/10/01 09:26:43;;;;;;;8.18;3.70;;;;;;;14.48;97.89;100307.25;4926156;29;20608;-76
2022/10/01 09:29:14;;;;;;;12.45;4.18;;;;;;;14.53;97.48;100310.41;4930010;29;20050;-77
2022/10/01 09:31:44;;;;;;;11.30;4.05;;;;;;;14.57;97.67;100298.16;4930773;29;20059;-77
2022/10/01 09:34:15;;;;;;;11.65;4.25;;;;;;;14.67;96.90;100322.75;4930830;29;20059;-77
2022/10/01 09:36:55;;;;;;;14.50;4.15;;;;;;;14.71;96.28;100318.69;4916009;29;20470;-77
2022/10/01 09:39:27;;;;;;;8.95;3.42;;;;;;;14.80;96.38;100315.06;4912514;29;20130;-77
2022/10/01 09:41:52;;;;;;;13.70;3.42;;;;;;;14.95;95.71;100312.66;4914368;29;20048;-77
2022/10/01 09:44:27;;;;;;;9.18;3.05;;;;;;;15.10;95.91;100310.25;4912560;29;20028;-76
2022/10/01 09:46:54;;;;;;;9.38;3.17;;;;;;;15.21;93.66;100312.81;4915048;29;20401;-77
2022/10/01 09:49:32;;;;;;;10.85;3.00;;;;;;;15.34;94.57;100312.41;4924247;29;20044;-76
2022/10/01 09:52:24;;;;;;;11.93;3.03;;;;;;;15.47;93.64;100308.28;4913589;29;20093;-76
2022/10/01 09:55:00;;;;;;;10.35;2.55;;;;;;;15.57;91.77;100297.22;4910450;29;20056;-77
2022/10/01 09:57:39;;;;;;;18.92;3.25;;;;;;;15.71;90.72;100304.94;4930048;29;20383;-77
2022/10/01 10:00:18;;;;;;;10.48;2.38;;;;;;;15.84;90.70;100309.16;4933373;29;20098;-77
2022/10/01 10:02:46;;;;;;;11.52;2.83;;;;;;;16.01;87.44;100317.38;4933852;29;20570;-76
2022/10/01 10:05:24;;;;;;;11.13;3.17;;;;;;;16.26;89.71;100318.41;4933661;29;20039;-77
2022/10/01 10:07:52;;;;;;;10.15;2.45;;;;;;;16.52;85.24;100325.81;4923966;29;20036;-77
2022/10/01 10:10:34;;;;;;;9.32;1.75;;;;;;;16.64;86.52;100324.47;4933829;29;20035;-76
2022/10/01 10:13:13;;;;;;;11.40;2.00;;;;;;;16.56;84.74;100339.03;4932527;29;20475;-76
2022/10/01 10:15:49;;;;;;;14.13;2.15;;;;;;;16.52;87.11;100342.28;4934243;29;20046;-76
2022/10/01 10:18:16;;;;;;;11.50;2.00;;;;;;;16.27;82.76;100372.31;4935002;29;20040;-76
2022/10/01 10:20:44;;;;;;;16.75;2.15;;;;;;;15.97;84.76;100367.25;4914801;29;20024;-78
2022/10/01 10:23:14;;;;;;;13.48;2.40;;;;;;;15.72;85.34;100377.13;4914247;29;20048;-77
2022/10/01 10:25:39;;;;;;;8.45;2.20;;;;;;;15.46;84.88;100376.97;4919097;29;20046;-77
2022/10/01 10:28:18;;;;;;;9.52;1.98;;;;;;;15.24;85.66;100381.00;4901338;29;20044;-78
2022/10/01 10:30:44;;;;;;;9.85;1.30;;;;;;;15.00;86.71;100371.44;4917452;29;20043;-77
2022/10/01 10:33:12;;;;;;;4.78;1.33;;;;;;;15.00;89.29;100382.41;4929982;29;20103;-77
2022/10/01 10:35:38;;;;;;;8.75;1.80;;;;;;;15.07;89.66;100390.03;4930440;29;20103;-77
2022/10/01 10:38:03;;;;;;;14.25;2.20;;;;;;;15.28;91.86;100390.63;4934381;29;20044;-78
2022/10/01 10:40:44;;;;;;;11.63;2.28;;;;;;;15.44;89.78;100399.06;4933772;29;20107;-76
2022/10/01 10:43:21;;;;;;;13.93;2.17;;;;;;;15.45;90.03;100395.31;4932969;29;20055;-77
2022/10/01 10:45:53;;;;;;;10.13;1.85;;;;;;;15.44;86.40;100401.81;4933331;29;20048;-74
2022/10/01 10:48:19;;;;;;;10.77;2.25;;;;;;;15.37;88.77;100402.56;4932424;29;20035;-77
2022/10/01 10:50:45;;;;;;;12.93;2.17;;;;;;;15.26;87.36;100418.22;4931686;29;20050;-77
2022/10/01 10:53:23;;;;;;;12.43;2.03;;;;;;;15.19;87.03;100417.06;4932237;29;20162;-76
2022/10/01 10:56:01;;;;;;;11.02;1.83;;;;;;;15.08;85.73;100428.25;4929812;29;20122;-77
2022/10/01 10:58:39;;;;;;;6.43;1.90;;;;;;;15.00;86.25;100433.59;4929095;29;20055;-74
2022/10/01 11:01:09;;;;;;;14.82;2.45;;;;;;;14.97;86.19;100431.19;4915172;29;20367;-77
2022/10/01 11:03:40;;;;;;;4.13;1.40;;;;;;;15.02;84.73;100428.84;4915743;29;20051;-77
2022/10/01 11:06:11;;;;;;;14.70;2.65;;;;;;;15.30;89.33;100444.31;4932183;29;20044;-77
2022/10/01 11:08:38;;;;;;;9.52;1.75;;;;;;;15.63;86.66;100428.25;4930516;29;20032;-77
2022/10/01 11:11:32;;;;;;;11.38;2.63;;;;;;;15.85;83.30;100431.59;4927930;29;21017;-76
2022/10/01 11:14:09;;;;;;;17.98;2.50;;;;;;;15.88;84.42;100440.38;4914793;29;20127;-77
2022/10/01 11:17:04;;;;;;;7.22;2.25;;;;;;;15.89;84.53;100447.56;4928890;29;20436;-77
2022/10/01 11:19:44;;;;;;;7.22;1.60;;;;;;;15.88;83.33;100454.09;4932752;29;20032;-77
2022/10/01 11:22:51;;;;;;;14.70;2.22;;;;;;;16.10;84.28;100450.03;4929304;29;20496;-77
2022/10/01 11:26:02;;;;;;;14.75;2.30;;;;;;;16.17;84.09;100461.25;4930749;29;20126;-76
2022/10/01 11:29:02;;;;;;;9.27;1.70;;;;;;;16.33;83.86;100464.16;4947992;29;20135;-77
2022/10/01 11:31:38;;;;;;;13.38;2.40;;;;;;;16.54;84.09;100467.41;4933596;29;20036;-77
2022/10/01 11:34:27;;;;;;;11.88;2.25;;;;;;;16.56;80.96;100459.88;4933073;29;20051;-77
2022/10/01 11:37:00;;;;;;;8.52;1.83;;;;;;;16.46;82.91;100474.72;4932873;29;20385;-78